Terminal Aerodrome Forecast
Issued by NWS Sioux Falls, SD

Home | Current Version | Previous Version | Text Only | Print | Product List | Glossary On
Versions: 1 2 3 4 5 6 7 8 9 10 11 12 13 14 15 16 17 18 19 20 21 22 23 24 25 26 27 28 29 30 31 32 33 34
000
FTUS43 KFSD 171720
TAFSUX
TAF
KSUX 171720Z 1718/1818 05004KT P6SM SCT040
     FM180200 09005KT P6SM SCT100 BKN250
     FM180900 11005KT 6SM BR SCT010
     FM181100 13008KT 3SM BR BKN006
     FM181600 16007KT P6SM BKN015=

USA.gov is the U.S. government's official web portal to all federal, state and local government web resources and services.